PBF - Pinebluff Rgnl/Grider Fld

Pirep is a free, collaborative database of all public and private airports located within the United States. All pilots are welcome to contribute, edit, and improve any airport they have local knowledge about, no registration required.
Uploaded photos will be licensed under a CC BY-SA 4.0 license. Please only upload photos you have the rights to use.
Tags
Public
Food
METAR / TAF
Edit Tags
Camping
Lodging
Car Rental
Bicycles
Swimming
Golfing
Fishing
Hot Springs
Museum
Flying Clubs
Airpark
Upcoming Events
No upcoming events. Is anything happening here soon?
*
*
*

Where exactly on/near the airport is this event taking place?

Is there a webpage with more information for this event?

Who should be contacted for more information?

What is this event all about?

Repeat every
Description
Last updated: 2023-05-10 22:35:46 CDT
Transient Parking
Fuel Location
Landing & Tie-down Fees
Crew Car Availability
Flying Clubs
WiFi Access
Airport Statistics
Location: Pine Bluff, AR
Elevation: 205ft
Sectional: Memphis
Activation date: Jun 1941
Fuel: 100LL, A (prices)
Runway 18/36: 5,998ft
Access: Open to the public
Current Weather — VFR
  • Weather data is strictly informational and not for flight planning purposes.
  • METAR
    2024-05-30 03:53:00 CDT
    Ceiling Wind Temperature Dewpoint Weather Visbility
    Sky clear 360° @ 4kt 68°F 64°F N/A 10SM
    Raw: KPBF 300853Z AUTO 36004KT 10SM CLR 20/18 A3006 RMK AO2 SLP176 T02000183 58004
  • TAF
    2024-05-30 01:00:00 CDT – 2024-05-30 10:00:00 CDT
    Ceiling Wind Weather Visbility
    Sky clear Variable N/A 6SM
    Clouds: Scattered @ 25,000ft
    Raw: KPBF 300520Z 3006/3106 VRB04KT P6SM SCT250 FM301500 11008KT P6SM SCT025 BKN250 FM310400 12009KT P6SM VCSH SCT040 BKN100 PROB30 3104/3106 5SM -TSRA BR BKN025CB
  • TAF
    2024-05-30 10:00:00 CDT – 2024-05-30 23:00:00 CDT
    Ceiling Wind Weather Visbility
    25,000ft 110° @ 8kt N/A 6SM
    Clouds: Scattered @ 2,500ft, Broken @ 25,000ft
    Raw: KPBF 300520Z 3006/3106 VRB04KT P6SM SCT250 FM301500 11008KT P6SM SCT025 BKN250 FM310400 12009KT P6SM VCSH SCT040 BKN100 PROB30 3104/3106 5SM -TSRA BR BKN025CB
  • TAF
    2024-05-30 23:00:00 CDT – 2024-05-31 01:00:00 CDT
    Ceiling Wind Weather Visbility
    10,000ft 120° @ 9kt Showers in vicinity 6SM
    Clouds: Scattered @ 4,000ft, Broken @ 10,000ft
    Raw: KPBF 300520Z 3006/3106 VRB04KT P6SM SCT250 FM301500 11008KT P6SM SCT025 BKN250 FM310400 12009KT P6SM VCSH SCT040 BKN100 PROB30 3104/3106 5SM -TSRA BR BKN025CB
  • TAF
    2024-05-30 23:00:00 CDT – 2024-05-31 01:00:00 CDT
    Ceiling Wind Weather Visbility
    2,500ft ° @ kt Light thunderstorm rain, mist 5SM
    Clouds: Broken @ 2,500ft
    Raw: KPBF 300520Z 3006/3106 VRB04KT P6SM SCT250 FM301500 11008KT P6SM SCT025 BKN250 FM310400 12009KT P6SM VCSH SCT040 BKN100 PROB30 3104/3106 5SM -TSRA BR BKN025CB
Click/tap to add an annotation marker to the map
Airport Webcams
No webcams added yet.
Direct links to live image URLs will be displayed inline on this page. URLs to separate webpages will be linked to.
URL:
Direct links to live image URLs will be displayed inline on this page. URLs to separate webpages will be linked to.
URL:
Remarks
  • Arpt clsd to acft with 30 or more psgrs.
  • Migratory birds invof arpt.
  • Numerous agricultural opns on & invof arpt year round.
  • For cd ctc memphis artcc at 901-368-8453/8449.
  • Dusk-dawn. actvt mirl ry 18/36 and malsr ry 18 - ctaf.
  • For arpt attendant aft hrs call 870-540-9439.
  • Self service fuel avbl 24 hrs with credit card (100ll & jet a).
  • Two +3 ft posts 180 ft fm ry end 180 ft r.
Comments
Leave a comment What was your experience like at this airport?